Alaska B739 at Portland on Nov 18th 2023, blew left main tyre on landing

Last Update: November 20, 2023 / 17:09:33 GMT/Zulu time

Bookmark this article
Incident Facts

Date of incident
Nov 18, 2023

Classification
Incident

Flight number
AS-1423

Aircraft Registration
N481AS

Aircraft Type
Boeing 737-900

ICAO Type Designator
B739

Airport ICAO Code
KPDX

An Alaska Airlines Boeing 737-900, registration N481AS performing flight AS-1423 from San Jose Cabo (Mexico) to Portland,OR (USA), landed on Portland's runway 10R when one of the left main tyres blew. The aircraft taxied to the apron.

The FAA reported: "DURING LANDING, AIRCRAFT SUFFERED A BLOWN LEFT MAIN TIRE CAUSING DAMAGE TO LEFT FLAP, PORTLAND, OREGON."

The aircraft remained on the ground in Portland for about 23.5 hours before returning to service.



Metars:
KPDX 182353Z 12010KT 10SM FEW050 BKN080 OVC095 10/02 A2963 RMK AO2 SLP033 T01000022 10111 20100 56024 $=
KPDX 182253Z 12011KT 10SM BKN095 11/02 A2964 RMK AO2 SLP037 T01060022 $=
KPDX 182153Z 12011KT 10SM FEW120 SCT250 11/03 A2968 RMK AO2 SLP048 ACSL N-E T01060028 $=
KPDX 182053Z 12012KT 10SM FEW120 SCT250 11/03 A2970 RMK AO2 SLP057 T01110028 58030 $=
KPDX 181953Z 13011KT 10SM FEW120 FEW250 11/02 A2973 RMK AO2 SLP068 T01060022 $=
KPDX 181853Z 13012KT 10SM SCT120 SCT250 11/02 A2977 RMK AO2 SLP080 T01060022 $=
Aircraft Registration Data
Registration mark
N481AS
Country of Registration
United States
Date of Registration
Anip pAlellckAk Subscribe to unlock
Manufacturer
BOEING
Aircraft Model / Type
737-990ER
Number of Seats
ICAO Aircraft Type
B739
Year of Manufacture
Serial Number
Aircraft Address / Mode S Code (HEX)
Engine Count
Engine Manufacturer
Engine Model
Engine Type
Pounds of Thrust
Main Owner
NbiipphelqimldblddnmdqknAqAmgqchegekbjidiec edfignn bnc qmljebeeppfblilgkj flfbbpjfnebefcgqkmmdnjgipc Subscribe to unlock
Incident Facts

Date of incident
Nov 18, 2023

Classification
Incident

Flight number
AS-1423

Aircraft Registration
N481AS

Aircraft Type
Boeing 737-900

ICAO Type Designator
B739

Airport ICAO Code
KPDX

This article is published under license from Avherald.com. © of text by Avherald.com.
Article source

You can read 2 more free articles without a subscription.

Subscribe now and continue reading without any limits!

Are you a subscriber? Login
Subscribe

Read unlimited articles and receive our daily update briefing. Gain better insights into what is happening in commercial aviation safety.

Send tip

Support AeroInside by sending a small tip amount.

Related articles

Newest articles

Subscribe today

Are you researching aviation incidents? Get access to AeroInside Insights, unlimited read access and receive the daily newsletter.

Pick your plan and subscribe

Partner

Blockaviation logo

A new way to document and demonstrate airworthiness compliance and aircraft value. Find out more.

ELITE Logo

ELITE Simulation Solutions is a leading global provider of Flight Simulation Training Devices, IFR training software as well as flight controls and related services. Find out more.

Blue Altitude Logo

Your regulation partner, specialists in aviation safety and compliance; providing training, auditing, and consultancy services. Find out more.

AeroInside Blog
Popular aircraft
Airbus A320
Boeing 737-800
Boeing 737-800 MAX
Popular airlines
American Airlines
United
Delta
Air Canada
Lufthansa
British Airways